createdAt,value
2018-11-04T00:00:47.842Z,31.70
2018-11-04T00:03:15.403Z,32.60
2018-11-04T00:05:43.004Z,31.87
2018-11-04T00:08:10.587Z,33.47
2018-11-04T00:10:38.255Z,29.00
2018-11-04T00:13:06.446Z,31.40
2018-11-04T00:15:34.178Z,36.97
2018-11-04T00:18:01.767Z,30.77
2018-11-04T00:20:29.339Z,29.90
2018-11-04T00:22:56.870Z,27.77
2018-11-04T00:25:26.234Z,32.60
2018-11-04T00:27:53.814Z,29.77
2018-11-04T00:30:21.309Z,27.07
2018-11-04T00:32:48.846Z,33.67
2018-11-04T00:35:16.440Z,31.03
2018-11-04T00:37:44.051Z,32.87
2018-11-04T00:40:11.579Z,35.97
2018-11-04T00:42:39.090Z,33.10
2018-11-04T00:45:07.912Z,34.67
2018-11-04T00:47:35.954Z,36.73
2018-11-04T00:50:03.967Z,33.17
2018-11-04T00:52:31.515Z,32.30
2018-11-04T00:54:59.043Z,35.23
2018-11-04T00:57:26.650Z,37.00
2018-11-04T00:59:54.258Z,34.93
2018-11-04T01:02:21.816Z,35.93
2018-11-04T01:04:49.391Z,33.87
2018-11-04T01:07:17.096Z,36.20
2018-11-04T01:09:44.702Z,39.23
2018-11-04T01:12:12.624Z,39.90
2018-11-04T01:14:40.623Z,40.83
2018-11-04T01:17:08.225Z,45.67
2018-11-04T01:19:36.015Z,36.00
2018-11-04T01:22:03.836Z,42.57
2018-11-04T01:24:31.526Z,36.57
2018-11-04T01:26:59.019Z,34.43
2018-11-04T01:29:26.606Z,38.60
2018-11-04T01:31:54.148Z,37.13
2018-11-04T01:34:21.889Z,34.50
2018-11-04T01:36:49.451Z,39.20
2018-11-04T01:39:20.376Z,38.10
2018-11-04T01:41:48.060Z,37.13
2018-11-04T01:44:15.649Z,37.77
2018-11-04T01:46:43.211Z,40.90
2018-11-04T01:49:11.006Z,40.90
2018-11-04T01:51:38.622Z,42.10
2018-11-04T01:54:06.379Z,41.83
2018-11-04T01:56:34.427Z,39.60
2018-11-04T01:59:02.324Z,43.13
2018-11-04T02:01:29.951Z,38.17
2018-11-04T02:03:57.510Z,36.77
2018-11-04T02:06:25.064Z,40.87
2018-11-04T02:08:52.611Z,45.10
2018-11-04T02:11:20.187Z,38.40
2018-11-04T02:13:48.088Z,37.83
2018-11-04T02:16:15.687Z,39.57
2018-11-04T02:18:43.240Z,37.83
2018-11-04T02:21:10.815Z,39.73
2018-11-04T02:23:38.462Z,40.23
2018-11-04T02:26:06.458Z,36.97
2018-11-04T02:28:34.226Z,39.70
2018-11-04T02:31:01.839Z,39.90
2018-11-04T02:33:29.411Z,40.67
2018-11-04T02:35:56.951Z,36.33
2018-11-04T02:38:24.490Z,38.17
2018-11-04T02:40:52.118Z,34.20
2018-11-04T02:43:19.655Z,42.03
2018-11-04T02:45:47.166Z,39.70
2018-11-04T02:48:14.762Z,37.77
2018-11-04T02:50:42.406Z,44.70
2018-11-04T02:53:10.203Z,37.27
2018-11-04T02:55:37.732Z,36.97
2018-11-04T02:58:05.533Z,36.67
2018-11-04T03:00:33.059Z,34.33
2018-11-04T03:03:00.592Z,36.40
2018-11-04T03:05:28.240Z,44.87
2018-11-04T03:07:55.838Z,35.77
2018-11-04T03:10:23.383Z,39.20
2018-11-04T03:12:50.931Z,39.47
2018-11-04T03:15:18.542Z,39.43
2018-11-04T03:17:46.079Z,41.70
2018-11-04T03:20:13.659Z,41.17
2018-11-04T03:22:41.287Z,36.77
2018-11-04T03:25:08.872Z,47.57
2018-11-04T03:27:36.447Z,41.50
2018-11-04T03:30:04.492Z,38.27
2018-11-04T03:32:32.069Z,44.00
2018-11-04T03:34:59.643Z,37.77
2018-11-04T03:37:27.231Z,47.10
2018-11-04T03:39:54.787Z,40.87
2018-11-04T03:42:22.339Z,40.40
2018-11-04T03:44:50.114Z,40.77
2018-11-04T03:47:17.773Z,39.97
2018-11-04T03:49:45.309Z,39.47
2018-11-04T03:52:12.926Z,38.67
2018-11-04T03:54:40.551Z,37.73
2018-11-04T03:57:08.314Z,41.93
2018-11-04T03:59:35.978Z,38.93
2018-11-04T04:02:03.909Z,40.60
2018-11-04T04:04:31.478Z,44.47
2018-11-04T04:06:59.158Z,40.80
2018-11-04T04:09:26.711Z,37.93
2018-11-04T04:11:54.334Z,48.03
2018-11-04T04:14:21.917Z,45.10
2018-11-04T04:16:49.492Z,41.57
2018-11-04T04:19:17.290Z,45.60
2018-11-04T04:21:44.849Z,43.60
2018-11-04T04:24:12.422Z,53.90
2018-11-04T04:26:39.990Z,44.63
2018-11-04T04:29:07.803Z,55.50
2018-11-04T04:31:35.330Z,54.70
2018-11-04T04:34:02.942Z,58.93
2018-11-04T04:36:30.607Z,65.93
2018-11-04T04:38:58.229Z,66.87
2018-11-04T04:41:26.107Z,73.60
2018-11-04T04:43:54.330Z,57.40
2018-11-04T04:46:21.962Z,59.53
2018-11-04T04:48:49.567Z,73.33
2018-11-04T04:51:17.161Z,66.63
2018-11-04T04:53:44.699Z,81.17
2018-11-04T04:56:12.249Z,107.77
2018-11-04T04:58:40.034Z,90.63
2018-11-04T05:01:07.646Z,105.50
2018-11-04T05:03:35.343Z,97.10
2018-11-04T05:06:02.906Z,78.73
2018-11-04T05:08:30.798Z,101.07
2018-11-04T05:10:58.397Z,68.50
2018-11-04T05:13:25.965Z,95.20
2018-11-04T05:15:53.523Z,96.30
2018-11-04T05:18:21.143Z,103.27
2018-11-04T05:20:48.778Z,75.13
2018-11-04T05:23:16.336Z,93.23
2018-11-04T05:25:43.946Z,108.87
2018-11-04T05:28:11.546Z,67.37
2018-11-04T05:30:39.430Z,140.13
2018-11-04T05:33:07.383Z,78.03
2018-11-04T05:35:35.148Z,120.63
2018-11-04T05:38:02.693Z,71.40
2018-11-04T05:40:30.361Z,106.13
2018-11-04T05:42:57.993Z,97.97
2018-11-04T05:45:25.718Z,98.27
2018-11-04T05:47:53.414Z,107.40
2018-11-04T05:50:20.990Z,115.87
2018-11-04T05:52:48.847Z,84.40
2018-11-04T05:55:16.498Z,101.70
2018-11-04T05:57:44.448Z,96.03
2018-11-04T06:00:11.963Z,104.03
2018-11-04T06:02:39.913Z,106.03
2018-11-04T06:05:09.020Z,165.97
2018-11-04T06:07:36.999Z,117.10
2018-11-04T06:10:05.791Z,134.10
2018-11-04T06:12:33.581Z,81.13
2018-11-04T06:15:01.316Z,71.77
2018-11-04T06:17:28.977Z,106.80
2018-11-04T06:19:56.585Z,90.07
2018-11-04T06:22:24.203Z,79.03
2018-11-04T06:24:51.790Z,95.07
2018-11-04T06:27:19.698Z,112.27
2018-11-04T06:29:47.318Z,95.17
2018-11-04T06:32:15.139Z,118.73
2018-11-04T06:34:42.768Z,94.80
2018-11-04T06:37:10.839Z,72.43
2018-11-04T06:39:38.410Z,108.33
2018-11-04T06:42:06.386Z,112.73
2018-11-04T06:44:33.997Z,72.20
2018-11-04T06:47:01.663Z,62.73
2018-11-04T06:49:29.259Z,75.90
2018-11-04T06:51:56.831Z,101.43
2018-11-04T06:54:24.425Z,88.37
2018-11-04T06:56:51.973Z,63.13
2018-11-04T06:59:19.645Z,76.63
2018-11-04T07:01:47.219Z,61.40
2018-11-04T07:04:18.931Z,85.60
2018-11-04T07:06:46.918Z,68.47
2018-11-04T07:09:15.139Z,73.73
2018-11-04T07:11:43.106Z,67.87
2018-11-04T07:14:10.716Z,67.40
2018-11-04T07:16:38.383Z,61.93
2018-11-04T07:19:06.528Z,55.23
2018-11-04T07:21:34.895Z,68.77
2018-11-04T07:24:03.218Z,70.30
2018-11-04T07:26:30.803Z,80.80
2018-11-04T07:28:58.365Z,75.90
2018-11-04T07:31:26.154Z,87.27
2018-11-04T07:33:53.787Z,67.83
2018-11-04T07:36:21.516Z,74.37
2018-11-04T07:38:49.250Z,71.57
2018-11-04T07:41:17.180Z,75.27
2018-11-04T07:43:44.874Z,68.43
2018-11-04T07:46:12.495Z,81.07
2018-11-04T07:48:40.060Z,68.00
2018-11-04T07:51:07.652Z,85.37
2018-11-04T07:53:35.506Z,73.93
2018-11-04T07:56:03.370Z,69.73
2018-11-04T07:58:31.035Z,64.57
2018-11-04T08:00:58.767Z,73.73
2018-11-04T08:03:26.326Z,61.20
2018-11-04T08:05:53.941Z,56.90
2018-11-04T08:08:21.703Z,61.20
2018-11-04T08:10:49.235Z,59.30
2018-11-04T08:13:16.875Z,57.50
2018-11-04T08:15:44.583Z,58.63
2018-11-04T08:18:12.139Z,58.20
2018-11-04T08:20:39.745Z,58.80
2018-11-04T08:23:08.345Z,69.40
2018-11-04T08:25:35.976Z,65.00
2018-11-04T08:28:04.176Z,54.80
2018-11-04T08:30:31.795Z,62.23
2018-11-04T08:32:59.354Z,62.40
2018-11-04T08:35:26.946Z,58.57
2018-11-04T08:37:54.574Z,59.43
2018-11-04T08:40:22.166Z,65.27
2018-11-04T08:42:49.723Z,52.37
2018-11-04T08:45:17.386Z,50.47
2018-11-04T08:47:45.155Z,53.37
2018-11-04T08:50:12.723Z,54.60
2018-11-04T08:52:40.399Z,52.33
2018-11-04T08:55:09.763Z,53.20
2018-11-04T08:57:37.518Z,51.53
2018-11-04T09:00:07.465Z,49.80
2018-11-04T09:02:34.986Z,52.03
2018-11-04T09:05:02.831Z,49.80
2018-11-04T09:07:30.969Z,58.07
2018-11-04T09:09:58.817Z,51.00
2018-11-04T09:12:27.407Z,51.83
2018-11-04T09:14:55.150Z,53.57
2018-11-04T09:17:22.737Z,55.37
2018-11-04T09:19:50.263Z,54.53
2018-11-04T09:22:17.999Z,54.73
2018-11-04T09:24:45.577Z,58.63
2018-11-04T09:27:13.253Z,54.60
2018-11-04T09:29:40.911Z,53.50
2018-11-04T09:32:08.534Z,51.80
2018-11-04T09:34:36.199Z,56.20
2018-11-04T09:37:03.775Z,56.80
2018-11-04T09:39:31.417Z,51.87
2018-11-04T09:41:59.053Z,54.30
2018-11-04T09:44:26.840Z,57.40
2018-11-04T09:46:54.589Z,50.23
2018-11-04T09:49:22.255Z,50.20
2018-11-04T09:51:49.822Z,52.13
2018-11-04T09:54:17.474Z,59.53
2018-11-04T09:56:45.565Z,54.10
2018-11-04T09:59:13.151Z,53.13
2018-11-04T10:01:40.792Z,53.77
2018-11-04T10:04:08.306Z,55.70
2018-11-04T10:06:36.128Z,53.33
2018-11-04T10:09:06.277Z,52.60
2018-11-04T10:11:33.907Z,55.13
2018-11-04T10:14:01.606Z,52.30
2018-11-04T10:16:29.195Z,50.50
2018-11-04T10:18:56.930Z,57.03
2018-11-04T10:21:24.519Z,44.70
2018-11-04T10:23:52.187Z,53.97
2018-11-04T10:26:19.692Z,49.20
2018-11-04T10:28:47.245Z,44.90
2018-11-04T10:31:14.876Z,47.70
2018-11-04T10:33:42.467Z,50.03
2018-11-04T10:36:10.038Z,47.97
2018-11-04T10:38:37.556Z,47.17
2018-11-04T10:41:05.469Z,48.70
2018-11-04T10:43:33.575Z,42.47
2018-11-04T10:46:01.257Z,39.20
2018-11-04T10:48:28.970Z,44.13
2018-11-04T10:50:56.495Z,44.80
2018-11-04T10:53:24.039Z,41.67
2018-11-04T10:55:51.788Z,47.20
2018-11-04T10:58:19.280Z,42.67
2018-11-04T11:00:52.576Z,49.90
2018-11-04T11:03:20.159Z,45.20
2018-11-04T11:05:47.675Z,45.73
2018-11-04T11:08:15.222Z,45.80
2018-11-04T11:10:42.886Z,51.03
2018-11-04T11:13:10.582Z,47.87
2018-11-04T11:15:38.142Z,41.30
2018-11-04T11:18:06.009Z,40.67
2018-11-04T11:20:33.656Z,40.43
2018-11-04T11:23:01.356Z,41.60
2018-11-04T11:25:29.121Z,45.90
2018-11-04T11:27:56.771Z,41.60
2018-11-04T11:30:24.304Z,42.60
2018-11-04T11:32:51.887Z,43.30
2018-11-04T11:35:19.515Z,49.20
2018-11-04T11:37:47.184Z,39.87
2018-11-04T11:40:14.895Z,40.77
2018-11-04T11:42:42.711Z,43.17
2018-11-04T11:45:10.219Z,37.13
2018-11-04T11:47:38.050Z,38.70
2018-11-04T11:50:06.109Z,42.50
2018-11-04T11:52:33.914Z,45.60
2018-11-04T11:55:01.379Z,44.83
2018-11-04T11:57:29.107Z,44.53
2018-11-04T11:59:56.726Z,42.87
2018-11-04T12:02:24.315Z,37.37
2018-11-04T12:04:51.954Z,42.27
2018-11-04T12:07:19.532Z,40.10
2018-11-04T12:09:47.061Z,41.53
2018-11-04T12:12:14.689Z,41.50
2018-11-04T12:14:42.436Z,37.80
2018-11-04T12:17:10.055Z,43.20
2018-11-04T12:19:37.695Z,36.23
2018-11-04T12:22:05.359Z,38.93
2018-11-04T12:24:32.984Z,41.13
2018-11-04T12:27:00.483Z,41.20
2018-11-04T12:29:28.107Z,41.70
2018-11-04T12:31:55.834Z,40.97
2018-11-04T12:34:23.351Z,40.93
2018-11-04T12:36:50.908Z,46.20
2018-11-04T12:39:18.508Z,39.23
2018-11-04T12:41:46.106Z,40.50
2018-11-04T12:44:13.798Z,40.70
2018-11-04T12:46:41.312Z,43.00
2018-11-04T12:49:08.883Z,43.07
2018-11-04T12:51:36.575Z,38.40
2018-11-04T12:54:04.300Z,41.77
2018-11-04T12:56:31.827Z,41.00
2018-11-04T12:58:59.393Z,41.30
2018-11-04T13:01:26.908Z,46.33
2018-11-04T13:03:54.691Z,38.50
2018-11-04T13:06:22.290Z,41.10
2018-11-04T13:08:49.966Z,40.57
2018-11-04T13:11:17.563Z,40.93
2018-11-04T13:13:45.145Z,40.90
2018-11-04T13:16:12.811Z,42.57
2018-11-04T13:18:40.662Z,40.43
2018-11-04T13:21:08.266Z,44.30
2018-11-04T13:23:35.755Z,47.53
2018-11-04T13:26:03.587Z,41.90
2018-11-04T13:28:31.165Z,44.87
2018-11-04T13:30:58.702Z,47.47
2018-11-04T13:33:26.313Z,42.23
2018-11-04T13:35:53.890Z,42.33
2018-11-04T13:38:24.503Z,43.87
2018-11-04T13:40:52.095Z,45.20
2018-11-04T13:43:19.792Z,42.87
2018-11-04T13:45:47.306Z,44.43
2018-11-04T13:48:14.935Z,47.23
2018-11-04T13:50:42.614Z,42.20
2018-11-04T13:53:10.166Z,46.23
2018-11-04T13:55:37.871Z,46.63
2018-11-04T13:58:05.956Z,42.17
2018-11-04T14:00:33.567Z,49.53
2018-11-04T14:03:01.247Z,44.20
2018-11-04T14:05:28.919Z,43.83
2018-11-04T14:07:56.574Z,43.50
2018-11-04T14:10:24.209Z,44.47
2018-11-04T14:12:51.903Z,45.70
2018-11-04T14:15:19.578Z,48.07
2018-11-04T14:17:47.186Z,46.50
2018-11-04T14:20:14.780Z,45.93
2018-11-04T14:22:42.372Z,44.77
2018-11-04T14:25:11.105Z,51.47
2018-11-04T14:27:38.623Z,46.97
2018-11-04T14:30:10.254Z,48.83
2018-11-04T14:32:37.954Z,54.60
2018-11-04T14:35:06.971Z,48.53
2018-11-04T14:37:34.808Z,48.10
2018-11-04T14:40:02.415Z,46.27
2018-11-04T14:42:30.287Z,46.10
2018-11-04T14:44:57.858Z,48.37
2018-11-04T14:47:25.484Z,49.80
2018-11-04T14:49:53.067Z,53.07
2018-11-04T14:52:20.629Z,49.00
2018-11-04T14:54:48.263Z,51.67
2018-11-04T14:57:15.970Z,53.07
2018-11-04T14:59:43.619Z,59.30
2018-11-04T15:02:11.280Z,53.03
2018-11-04T15:04:39.022Z,54.60
2018-11-04T15:07:06.754Z,47.40
2018-11-04T15:09:34.363Z,48.83
2018-11-04T15:12:02.142Z,48.87
2018-11-04T15:14:29.715Z,52.03
2018-11-04T15:16:57.311Z,56.07
2018-11-04T15:19:24.899Z,54.13
2018-11-04T15:21:52.421Z,56.70
2018-11-04T15:24:20.231Z,53.00
2018-11-04T15:26:48.281Z,50.53
2018-11-04T15:29:15.899Z,54.70
2018-11-04T15:31:43.552Z,52.10
2018-11-04T15:34:11.330Z,45.50
2018-11-04T15:36:38.935Z,56.40
2018-11-04T15:39:08.571Z,54.73
2018-11-04T15:41:36.110Z,66.23
2018-11-04T15:44:04.127Z,51.00
2018-11-04T15:46:31.705Z,52.30
2018-11-04T15:48:59.384Z,55.93
2018-11-04T15:51:27.419Z,51.17
2018-11-04T15:53:55.046Z,58.67
2018-11-04T15:56:22.755Z,53.90
2018-11-04T15:58:50.359Z,53.60
2018-11-04T16:01:17.947Z,54.83
2018-11-04T16:03:45.719Z,63.07
2018-11-04T16:06:13.536Z,57.13
2018-11-04T16:08:41.396Z,49.40
2018-11-04T16:11:08.974Z,56.53
2018-11-04T16:13:36.583Z,53.37
2018-11-04T16:16:04.893Z,53.60
2018-11-04T16:18:32.445Z,56.00
2018-11-04T16:21:00.022Z,56.00
2018-11-04T16:23:27.535Z,55.63
2018-11-04T16:25:55.138Z,55.60
2018-11-04T16:28:23.099Z,47.53
2018-11-04T16:30:50.681Z,57.00
2018-11-04T16:33:18.287Z,57.10
2018-11-04T16:35:46.100Z,59.57
2018-11-04T16:38:13.731Z,50.67
2018-11-04T16:40:43.483Z,60.87
2018-11-04T16:43:11.521Z,50.27
2018-11-04T16:45:39.120Z,49.60
2018-11-04T16:48:06.687Z,46.17
2018-11-04T16:50:34.335Z,54.20
2018-11-04T16:53:02.038Z,59.27
2018-11-04T16:55:29.594Z,56.07
2018-11-04T16:57:57.217Z,51.97
2018-11-04T17:00:24.824Z,53.67
2018-11-04T17:02:52.459Z,56.43
2018-11-04T17:05:20.129Z,58.50
2018-11-04T17:07:47.660Z,63.47
2018-11-04T17:10:15.296Z,52.70
2018-11-04T17:12:43.178Z,60.40
2018-11-04T17:15:12.161Z,52.10
2018-11-04T17:17:39.753Z,63.60
2018-11-04T17:20:12.657Z,60.67
2018-11-04T17:22:40.565Z,55.80
2018-11-04T17:25:09.306Z,60.33
2018-11-04T17:27:37.184Z,64.93
2018-11-04T17:30:12.543Z,48.17
2018-11-04T17:32:40.159Z,96.40
2018-11-04T17:35:08.971Z,72.60
2018-11-04T17:37:36.673Z,68.83
2018-11-04T17:40:06.163Z,55.83
2018-11-04T17:42:33.847Z,58.37
2018-11-04T17:45:01.588Z,58.53
2018-11-04T17:47:29.389Z,54.97
2018-11-04T17:49:57.035Z,57.20
2018-11-04T17:52:24.656Z,59.57
2018-11-04T17:54:52.352Z,55.33
2018-11-04T17:57:19.875Z,54.97
2018-11-04T17:59:47.626Z,53.90
2018-11-04T18:02:15.792Z,52.93
2018-11-04T18:04:43.434Z,58.97
2018-11-04T18:07:11.115Z,58.17
2018-11-04T18:09:38.747Z,55.03
2018-11-04T18:12:06.557Z,51.47
2018-11-04T18:14:34.255Z,53.27
2018-11-04T18:17:01.757Z,58.57
2018-11-04T18:19:29.338Z,53.13
2018-11-04T18:21:56.912Z,48.80
2018-11-04T18:24:24.607Z,54.67
2018-11-04T18:26:52.244Z,52.60
2018-11-04T18:29:19.831Z,47.00
2018-11-04T18:31:47.449Z,51.70
2018-11-04T18:34:15.341Z,48.43
2018-11-04T18:36:42.939Z,61.10
2018-11-04T18:39:11.382Z,54.10
2018-11-04T18:41:39.135Z,56.40
2018-11-04T18:44:07.616Z,53.93
2018-11-04T18:46:35.273Z,61.53
2018-11-04T18:49:02.979Z,58.03
2018-11-04T18:51:30.583Z,65.47
2018-11-04T18:53:58.235Z,62.37
2018-11-04T18:56:25.956Z,63.83
2018-11-04T18:58:53.621Z,58.77
2018-11-04T19:01:21.179Z,57.70
2018-11-04T19:03:48.817Z,59.57
2018-11-04T19:06:16.917Z,56.57
2018-11-04T19:08:44.520Z,65.40
2018-11-04T19:11:12.288Z,63.07
2018-11-04T19:13:40.024Z,69.03
2018-11-04T19:16:08.655Z,59.53
2018-11-04T19:18:36.379Z,60.27
2018-11-04T19:21:04.082Z,52.10
2018-11-04T19:23:31.696Z,58.37
2018-11-04T19:25:59.792Z,58.00
2018-11-04T19:28:27.435Z,46.63
2018-11-04T19:30:55.367Z,56.00
2018-11-04T19:33:22.882Z,54.50
2018-11-04T19:35:50.502Z,56.47
2018-11-04T19:38:18.232Z,51.73
2018-11-04T19:40:45.847Z,54.23
2018-11-04T19:43:13.462Z,55.87
2018-11-04T19:45:41.436Z,69.30
2018-11-04T19:48:09.383Z,49.90
2018-11-04T19:50:38.140Z,54.13
2018-11-04T19:53:05.974Z,52.43
2018-11-04T19:55:33.835Z,55.37
2018-11-04T19:58:01.372Z,50.70
2018-11-04T20:00:29.056Z,59.47
2018-11-04T20:02:56.645Z,56.60
2018-11-04T20:05:24.321Z,57.27
2018-11-04T20:07:51.891Z,56.10
2018-11-04T20:10:20.365Z,56.73
2018-11-04T20:12:57.494Z,58.67
2018-11-04T20:15:31.026Z,55.30
2018-11-04T20:18:09.263Z,55.33
2018-11-04T20:20:45.302Z,62.57
2018-11-04T20:23:13.659Z,59.00
2018-11-04T20:25:47.508Z,62.70
2018-11-04T20:28:15.158Z,56.17
2018-11-04T20:30:42.815Z,60.43
2018-11-04T20:33:11.911Z,58.00
2018-11-04T20:35:39.447Z,65.40
2018-11-04T20:38:07.391Z,62.30
2018-11-04T20:40:40.768Z,57.27
2018-11-04T20:43:08.447Z,57.90
2018-11-04T20:45:36.237Z,55.63
2018-11-04T20:48:13.478Z,50.10
2018-11-04T20:50:51.742Z,54.43
2018-11-04T20:53:24.939Z,52.87
2018-11-04T20:56:02.614Z,60.33
2018-11-04T20:58:36.688Z,55.90
2018-11-04T21:01:05.338Z,56.37
2018-11-04T21:03:33.198Z,57.17
2018-11-04T21:06:00.731Z,57.40
2018-11-04T21:08:29.658Z,59.77
2018-11-04T21:10:59.528Z,59.63
2018-11-04T21:13:28.005Z,53.23
2018-11-04T21:15:56.825Z,55.87
2018-11-04T21:18:24.346Z,51.67
2018-11-04T21:20:52.147Z,58.67
2018-11-04T21:23:19.797Z,48.97
2018-11-04T21:25:47.411Z,46.43
2018-11-04T21:28:15.048Z,60.73
2018-11-04T21:30:42.831Z,57.10
2018-11-04T21:33:10.417Z,59.80
2018-11-04T21:35:38.146Z,52.30
2018-11-04T21:38:05.884Z,60.00
2018-11-04T21:40:33.538Z,56.00
2018-11-04T21:43:01.155Z,54.77
2018-11-04T21:45:28.787Z,64.07
2018-11-04T21:47:56.459Z,56.67
2018-11-04T21:50:24.112Z,58.10
2018-11-04T21:52:51.648Z,61.57
2018-11-04T21:55:19.432Z,49.53
2018-11-04T21:57:46.923Z,52.73
2018-11-04T22:00:15.572Z,59.03
2018-11-04T22:02:43.478Z,60.97
2018-11-04T22:05:11.414Z,56.17
2018-11-04T22:07:39.992Z,57.30
2018-11-04T22:10:10.268Z,60.20
2018-11-04T22:12:38.092Z,60.47
2018-11-04T22:15:06.111Z,58.03
2018-11-04T22:17:33.778Z,55.83
2018-11-04T22:20:01.331Z,56.83
2018-11-04T22:22:28.931Z,54.53
2018-11-04T22:24:56.552Z,55.60
2018-11-04T22:27:24.166Z,52.03
2018-11-04T22:29:51.742Z,53.47
2018-11-04T22:32:19.463Z,53.93
2018-11-04T22:34:47.042Z,57.43
2018-11-04T22:37:14.646Z,56.70
2018-11-04T22:39:42.219Z,60.87
2018-11-04T22:42:09.825Z,51.37
2018-11-04T22:44:37.434Z,56.63
2018-11-04T22:47:05.064Z,53.13
2018-11-04T22:49:32.678Z,53.00
2018-11-04T22:52:00.282Z,55.83
2018-11-04T22:54:28.012Z,51.10
2018-11-04T22:56:55.728Z,51.13
2018-11-04T22:59:23.516Z,55.90
2018-11-04T23:01:51.223Z,52.77
2018-11-04T23:04:24.375Z,52.57
2018-11-04T23:06:52.002Z,50.47
2018-11-04T23:09:19.571Z,57.07
2018-11-04T23:11:47.167Z,47.97
2018-11-04T23:14:14.801Z,53.70
2018-11-04T23:16:42.405Z,50.60
2018-11-04T23:19:10.266Z,49.23
2018-11-04T23:21:37.869Z,53.67
2018-11-04T23:24:06.086Z,48.80
2018-11-04T23:26:33.650Z,48.47
2018-11-04T23:29:01.263Z,48.80
2018-11-04T23:31:28.787Z,53.13
2018-11-04T23:33:56.522Z,51.57
2018-11-04T23:36:24.056Z,48.70
2018-11-04T23:38:51.685Z,47.10
2018-11-04T23:41:19.272Z,47.93
2018-11-04T23:43:46.978Z,51.27
2018-11-04T23:46:14.706Z,52.17
2018-11-04T23:48:42.476Z,51.50
2018-11-04T23:51:10.003Z,51.70
2018-11-04T23:53:37.592Z,47.77
2018-11-04T23:56:05.485Z,50.30
2018-11-04T23:58:33.076Z,50.53
